createdAt,value
2024-03-16T00:02:00.835Z,100238.53
2024-03-16T00:05:03.766Z,100249.22
2024-03-16T00:08:09.911Z,100245.94
2024-03-16T00:11:12.783Z,100245.13
2024-03-16T00:14:15.604Z,100245.44
2024-03-16T00:17:22.654Z,100243.63
2024-03-16T00:20:27.226Z,100244.97
2024-03-16T00:23:30.240Z,100243.78
2024-03-16T00:26:32.959Z,100250.03
2024-03-16T00:29:35.717Z,100256.94
2024-03-16T00:32:42.220Z,100248.72
2024-03-16T00:35:45.045Z,100255.94
2024-03-16T00:38:51.310Z,100252.00
2024-03-16T00:41:55.255Z,100263.84
2024-03-16T00:44:57.900Z,100263.13
2024-03-16T00:48:05.753Z,100259.34
2024-03-16T00:51:08.823Z,100250.31
2024-03-16T00:54:12.729Z,100255.25
2024-03-16T00:57:15.521Z,100249.16
2024-03-16T01:00:19.705Z,100243.72
2024-03-16T01:03:22.673Z,100246.53
2024-03-16T01:06:25.602Z,100236.16
2024-03-16T01:09:28.527Z,100234.81
2024-03-16T01:12:31.298Z,100235.97
2024-03-16T01:15:36.914Z,100240.72
2024-03-16T01:18:41.291Z,100225.94
2024-03-16T01:21:44.050Z,100232.19
2024-03-16T01:24:46.832Z,100235.78
2024-03-16T01:27:49.610Z,100232.34
2024-03-16T01:30:53.285Z,100227.91
2024-03-16T01:33:56.137Z,100219.53
2024-03-16T01:36:58.901Z,100225.94
2024-03-16T01:40:01.736Z,100223.31
2024-03-16T01:43:09.135Z,100223.97
2024-03-16T01:46:17.078Z,100217.88
2024-03-16T01:49:20.060Z,100215.91
2024-03-16T01:52:22.857Z,100210.50
2024-03-16T01:55:25.623Z,100215.59
2024-03-16T01:58:28.267Z,100216.41
2024-03-16T02:01:34.053Z,100212.31
2024-03-16T02:04:40.120Z,100212.81
2024-03-16T02:07:46.287Z,100215.59
2024-03-16T02:10:48.987Z,100222.97
2024-03-16T02:13:52.524Z,100214.44
2024-03-16T02:16:56.468Z,100217.22
2024-03-16T02:19:59.240Z,100220.84
2024-03-16T02:23:01.985Z,100226.75
2024-03-16T02:26:09.033Z,100218.88
2024-03-16T02:29:11.758Z,100218.84
2024-03-16T02:32:15.771Z,100219.53
2024-03-16T02:35:19.323Z,100223.28
2024-03-16T02:38:22.119Z,100222.31
2024-03-16T02:41:26.466Z,100231.84
2024-03-16T02:44:38.428Z,100229.38
2024-03-16T02:47:42.286Z,100233.00
2024-03-16T02:50:45.086Z,100229.72
2024-03-16T02:53:47.772Z,100225.28
2024-03-16T02:56:50.741Z,100226.59
2024-03-16T02:59:53.488Z,100230.69
2024-03-16T03:02:56.210Z,100234.97
2024-03-16T03:05:58.955Z,100237.59
2024-03-16T03:09:01.715Z,100239.88
2024-03-16T03:12:06.113Z,100232.31
2024-03-16T03:15:10.746Z,100232.31
2024-03-16T03:18:13.535Z,100226.41
2024-03-16T03:21:16.716Z,100226.22
2024-03-16T03:24:19.650Z,100232.78
2024-03-16T03:27:22.323Z,100232.12
2024-03-16T03:30:25.178Z,100244.13
2024-03-16T03:33:27.951Z,100240.66
2024-03-16T03:36:31.002Z,100245.94
2024-03-16T03:39:33.828Z,100246.75
2024-03-16T03:42:45.592Z,100247.22
2024-03-16T03:45:51.729Z,100242.75
2024-03-16T03:49:01.661Z,100238.03
2024-03-16T03:52:05.905Z,100247.53
2024-03-16T03:55:10.497Z,100246.87
2024-03-16T03:58:13.292Z,100246.87
2024-03-16T04:01:16.270Z,100239.97
2024-03-16T04:04:19.078Z,100241.13
2024-03-16T04:07:21.959Z,100250.81
2024-03-16T04:10:24.676Z,100247.03
2024-03-16T04:13:28.525Z,100248.03
2024-03-16T04:16:31.296Z,100258.00
2024-03-16T04:19:34.008Z,100264.75
2024-03-16T04:22:39.886Z,100264.59
2024-03-16T04:25:42.527Z,100263.78
2024-03-16T04:28:45.262Z,100264.28
2024-03-16T04:31:47.956Z,100259.22
2024-03-16T04:34:50.690Z,100268.44
2024-03-16T04:37:53.957Z,100268.91
2024-03-16T04:40:59.689Z,100271.03
2024-03-16T04:44:02.475Z,100275.81
2024-03-16T04:47:05.728Z,100269.72
2024-03-16T04:50:08.886Z,100276.47
2024-03-16T04:53:12.934Z,100266.78
2024-03-16T04:56:15.693Z,100270.22
2024-03-16T04:59:18.683Z,100274.66
2024-03-16T05:02:21.860Z,100275.50
2024-03-16T05:05:24.636Z,100278.09
2024-03-16T05:08:27.304Z,100276.44
2024-03-16T05:11:30.057Z,100278.09
2024-03-16T05:14:33.143Z,100270.03
2024-03-16T05:17:37.228Z,100272.16
2024-03-16T05:20:39.874Z,100272.00
2024-03-16T05:23:46.731Z,100271.34
2024-03-16T05:26:50.135Z,100270.16
2024-03-16T05:29:52.939Z,100274.44
2024-03-16T05:32:55.626Z,100283.09
2024-03-16T05:36:00.143Z,100288.00
2024-03-16T05:39:02.781Z,100289.62
2024-03-16T05:42:05.787Z,100298.03
2024-03-16T05:45:08.826Z,100305.59
2024-03-16T05:48:11.628Z,100300.03
2024-03-16T05:51:14.313Z,100292.84
2024-03-16T05:54:17.109Z,100299.25
2024-03-16T05:57:19.854Z,100301.41
2024-03-16T06:00:24.196Z,100308.50
2024-03-16T06:03:27.933Z,100309.84
2024-03-16T06:06:33.593Z,100308.09
2024-03-16T06:09:36.574Z,100314.25
2024-03-16T06:12:39.360Z,100309.06
2024-03-16T06:15:42.240Z,100305.97
2024-03-16T06:18:48.722Z,100311.37
2024-03-16T06:21:52.052Z,100316.31
2024-03-16T06:24:54.811Z,100319.91
2024-03-16T06:28:07.717Z,100329.09
2024-03-16T06:31:12.638Z,100325.78
2024-03-16T06:34:15.465Z,100332.66
2024-03-16T06:37:20.972Z,100331.47
2024-03-16T06:40:23.891Z,100341.63
2024-03-16T06:43:26.720Z,100345.44
2024-03-16T06:46:29.810Z,100347.03
2024-03-16T06:49:32.508Z,100351.28
2024-03-16T06:52:35.423Z,100355.37
2024-03-16T06:55:38.749Z,100360.44
2024-03-16T06:58:42.204Z,100363.53
2024-03-16T07:01:45.425Z,100373.03
2024-03-16T07:04:48.438Z,100373.63
2024-03-16T07:07:51.190Z,100377.03
2024-03-16T07:10:53.928Z,100370.88
2024-03-16T07:13:56.707Z,100376.75
2024-03-16T07:16:59.711Z,100375.03
2024-03-16T07:20:02.658Z,100379.44
2024-03-16T07:23:05.699Z,100386.13
2024-03-16T07:26:08.791Z,100372.37
2024-03-16T07:29:12.166Z,100389.16
2024-03-16T07:32:14.932Z,100384.47
2024-03-16T07:35:17.937Z,100383.84
2024-03-16T07:38:21.024Z,100384.75
2024-03-16T07:41:24.534Z,100379.37
2024-03-16T07:44:27.364Z,100384.34
2024-03-16T07:47:30.269Z,100388.00
2024-03-16T07:50:33.228Z,100402.75
2024-03-16T07:53:36.034Z,100399.56
2024-03-16T07:56:38.855Z,100407.03
2024-03-16T07:59:41.823Z,100407.47
2024-03-16T08:02:44.585Z,100411.59
2024-03-16T08:05:48.205Z,100412.84
2024-03-16T08:08:51.485Z,100411.62
2024-03-16T08:11:54.315Z,100413.56
2024-03-16T08:14:58.285Z,100411.31
2024-03-16T08:18:02.493Z,100426.09
2024-03-16T08:21:07.814Z,100417.47
2024-03-16T08:24:12.089Z,100416.13
2024-03-16T08:27:15.210Z,100420.75
2024-03-16T08:30:19.147Z,100418.66
2024-03-16T08:33:21.978Z,100430.97
2024-03-16T08:36:25.218Z,100427.06
2024-03-16T08:39:28.403Z,100438.75
2024-03-16T08:42:35.119Z,100430.06
2024-03-16T08:45:37.955Z,100439.03
2024-03-16T08:48:40.934Z,100434.63
2024-03-16T08:51:44.276Z,100426.59
2024-03-16T08:54:47.672Z,100442.88
2024-03-16T08:57:50.609Z,100443.87
2024-03-16T09:00:54.907Z,100440.22
2024-03-16T09:03:57.863Z,100441.06
2024-03-16T09:07:00.583Z,100443.81
2024-03-16T09:10:03.829Z,100438.34
2024-03-16T09:13:07.308Z,100439.38
2024-03-16T09:16:10.143Z,100436.87
2024-03-16T09:19:16.546Z,100442.25
2024-03-16T09:22:19.503Z,100446.38
2024-03-16T09:25:22.460Z,100437.78
2024-03-16T09:28:28.730Z,100446.38
2024-03-16T09:31:34.371Z,100450.13
2024-03-16T09:34:37.104Z,100452.66
2024-03-16T09:37:40.085Z,100459.59
2024-03-16T09:40:47.068Z,100459.41
